Orbital elements of SL-16 DEB
| Launched | 24 December 1992 |
| Flight ended | – |
| Launch site | Tyuratam Missile and Space Center, Kazakhstan (Also known as Baikonur Cosmodrome) |
| Owner | Commonwealth of Independent States (former USSR) |
| NORAD ID | 22812 |
| Date fetched |
Epoch osculation |
Inc. [°] |
Ecc. | RA asc node [hr] |
Arg Peri. [°] |
Mean anom [°] |
Mean motion [rev/day] |
Abs. mag |
| Date fetched |
Epoch osculation |
Inc. [°] |
Ecc. | RA asc node [hr] |
Arg Peri. [°] |
Mean anom [°] |
Mean motion [rev/day] |
Abs. mag |
| 2026 May 06 17:57 | 2026 May 04 21:20:53 | 70.6860 | 0.01248 | 2.1353 | 107.4954 | 253.9846 | 14.08601 | – |
| 2026 May 05 17:57 | 2026 May 04 21:20:53 | 70.6860 | 0.01248 | 2.1353 | 107.4954 | 253.9846 | 14.08601 | – |
| 2026 May 04 17:57 | 2026 Apr 30 04:51:47 | 70.6855 | 0.01244 | 2.7951 | 114.4386 | 253.9846 | 14.08601 | – |
| 2026 May 03 17:57 | 2026 Apr 30 04:51:47 | 70.6855 | 0.01244 | 2.7951 | 114.4386 | 253.9846 | 14.08601 | – |
| 2026 May 02 17:57 | 2026 Apr 30 04:51:47 | 70.6855 | 0.01244 | 2.7951 | 114.4386 | 253.9846 | 14.08601 | – |
| 2026 May 01 17:56 | 2026 Apr 30 04:51:47 | 70.6855 | 0.01244 | 2.7951 | 114.4386 | 253.9846 | 14.08601 | – |
| 2026 Apr 30 17:56 | 2026 Apr 30 04:51:47 | 70.6855 | 0.01244 | 2.7951 | 114.4386 | 253.9846 | 14.08601 | – |
| 2026 Apr 29 17:57 | 2026 Apr 24 05:41:52 | 70.6850 | 0.01241 | 3.6348 | 123.2787 | 253.9846 | 14.08601 | – |
| 2026 Apr 28 17:56 | 2026 Apr 24 05:41:52 | 70.6850 | 0.01241 | 3.6348 | 123.2787 | 253.9846 | 14.08601 | – |
| 2026 Apr 27 17:58 | 2026 Apr 24 05:41:52 | 70.6850 | 0.01241 | 3.6348 | 123.2787 | 253.9846 | 14.08601 | – |
| 2026 Apr 26 17:58 | 2026 Apr 24 05:41:52 | 70.6850 | 0.01241 | 3.6348 | 123.2787 | 253.9846 | 14.08601 | – |
| 2026 Apr 25 17:58 | 2026 Apr 24 05:41:52 | 70.6850 | 0.01241 | 3.6348 | 123.2787 | 253.9846 | 14.08601 | – |
| 2026 Apr 24 17:59 | 2026 Apr 24 05:41:52 | 70.6850 | 0.01241 | 3.6348 | 123.2787 | 253.9846 | 14.08601 | – |
| 2026 Apr 23 17:57 | 2026 Apr 19 06:23:29 | 70.6843 | 0.01241 | 4.3347 | 130.6652 | 253.9846 | 14.08601 | – |
| 2026 Apr 22 17:57 | 2026 Apr 19 06:23:29 | 70.6843 | 0.01241 | 4.3347 | 130.6652 | 253.9846 | 14.08601 | – |
| 2026 Apr 21 17:57 | 2026 Apr 19 06:23:29 | 70.6843 | 0.01241 | 4.3347 | 130.6652 | 253.9846 | 14.08601 | – |
| 2026 Apr 20 17:57 | 2026 Apr 19 06:23:29 | 70.6843 | 0.01241 | 4.3347 | 130.6652 | 253.9846 | 14.08601 | – |
| 2026 Apr 19 17:58 | 2026 Apr 19 06:23:29 | 70.6843 | 0.01241 | 4.3347 | 130.6652 | 253.9846 | 14.08601 | – |
| 2026 Apr 18 17:56 | 2026 Apr 12 02:14:48 | 70.6831 | 0.01243 | 5.3444 | 141.3569 | 253.9846 | 14.08601 | – |
| 2026 Apr 16 17:57 | 2026 Apr 12 02:14:48 | 70.6831 | 0.01243 | 5.3444 | 141.3569 | 253.9846 | 14.08601 | – |
| 2026 Apr 14 17:57 | 2026 Apr 12 02:14:48 | 70.6831 | 0.01243 | 5.3444 | 141.3569 | 253.9846 | 14.08601 | – |
| 2026 Apr 13 17:57 | 2026 Apr 12 02:14:48 | 70.6831 | 0.01243 | 5.3444 | 141.3569 | 253.9846 | 14.08601 | – |
| 2026 Apr 12 17:57 | 2026 Apr 08 09:37:01 | 70.6838 | 0.01245 | 5.8643 | 146.8368 | 253.9846 | 14.08601 | – |
| 2026 Apr 11 17:57 | 2026 Apr 08 09:37:01 | 70.6838 | 0.01245 | 5.8643 | 146.8368 | 253.9846 | 14.08601 | – |
| 2026 Apr 10 17:58 | 2026 Apr 08 09:37:01 | 70.6838 | 0.01245 | 5.8643 | 146.8368 | 253.9846 | 14.08601 | – |
| 2026 Apr 09 18:01 | 2026 Apr 08 09:37:01 | 70.6838 | 0.01245 | 5.8643 | 146.8368 | 253.9846 | 14.08601 | – |